Brookline, MA (02445)

9:02 PM EDT on August 20, 2014 (GMT -0400)
Fisher Hill | Change Station
CLOSE
Current Station
Personal Weather Station
Location: Brookline, MA
Elevation: 177 ft
Nearby Weather Stations

Elev 177 ft 42.33 °N, 71.14 °W | Updated 1 second ago

Scattered Clouds
Scattered Clouds
64.0 °F
Feels Like 64.0 °F
N
0.0
Wind Variable Wind from ESE
Gusts 3.0 mph

Today
High -- | Low -- °F
--% Chance of Precip.
Yesterday
High -- | Low -- °F
Precip. -- in
5:57 AM 7:38 PM
Waning Crescent, 18% visible
Pressure 30.05 in
Visibility 10.0 miles
Clouds Few 7500 ft
Scattered Clouds 30000 ft
Dew Point 58 °F
Humidity 81%
Rainfall 0.00 in
Snow Depth Not available.
UV 0 out of 12
Pollen 8.90 out of 12
PM2.5 Good
Flu Activity Not available.
METAR KBOS 210054Z 10003KT 10SM FEW075 SCT300 18/16 A3005 RMK AO2 SLP176 T01780161

More Conditions Fewer Conditions

Pressure 30.05 in
Visibility 10.0 miles
Clouds Few 7500 ft
Scattered Clouds 30000 ft
Dew Point 58 °F
Humidity 81%
Rainfall 0.00 in
Snow Depth Not available.
UV 0 out of 12
Pollen 8.90 out of 12
PM2.5 Good
Flu Activity Not available.
METAR KBOS 210054Z 10003KT 10SM FEW075 SCT300 18/16 A3005 RMK AO2 SLP176 T01780161

More Conditions Fewer Conditions

10-Day Weather Forecast

Almanac

Astronomy

Aug. 20, 2014 Rise Set
Actual Time 5:57 AM EDT 7:38 PM EDT
Civil Twilight 5:27 AM EDT 8:07 PM EDT
Nautical Twilight 4:50 AM EDT 8:43 PM EDT
Astronomical Twilight 4:12 AM EDT 9:22 PM EDT
Moon 1:32 AM EDT (8/20) 4:22 PM EDT (8/20)
Length of Visible Light 14h 40m
Length of Day
13h 41m
Tomorrow will be 2m 37s shorter.
Waning Crescent, 18% of the Moon is Illuminated
Today
Waning Crescent
Aug 25
New
Sep 2
First Quarter
Sep 8
Full
Sep 15
Last Quarter

Today's Extremes

State Highs State Lows

Community

WunderPhotos

Upload Photos

1,745,823 photos uploaded!

WunderBlogs® & News

Nearby

Air Quality

  Air Quality AQ Index Pollutant
Yesterday Good
PM2.5
Yesterday Good
OZONE
Current Good
PM2.5
Wednesday Good
PM2.5
Wednesday Good
OZONE
Thursday Good
PM2.5
Thursday Good
OZONE

Snow Depth

Station Depth Elevation
No new snow has been reported.

Earthquake Activity

City Distance Mag. Time & Date
Deep River Center, Connecticut 97 miles 2.7 3:09 AM EDT
2014-08-14
Minimum magnitude displayed is 2.5.

Coastal Water Temperatures

Place Temperature
Boston, MA 64.0 °F
Providence, RI 73.9 °F
Fall River, MA 75.0 °F
Conimicut Light, RI 73.9 °F

Nearby Weather Stations